createdAt,value
2023-02-04T00:05:19.140Z,103104.50
2023-02-04T00:15:40.558Z,103116.22
2023-02-04T00:26:01.904Z,103120.41
2023-02-04T00:36:23.266Z,103119.34
2023-02-04T00:46:44.671Z,103140.66
2023-02-04T00:57:06.001Z,103166.34
2023-02-04T01:07:27.387Z,103200.69
2023-02-04T01:17:48.924Z,103216.97
2023-02-04T01:28:10.408Z,103239.22
2023-02-04T01:38:31.796Z,103251.06
2023-02-04T01:48:53.802Z,103295.75
2023-02-04T01:59:16.601Z,103299.72
2023-02-04T02:09:37.963Z,103329.53
2023-02-04T02:19:59.397Z,103348.06
2023-02-04T02:30:20.973Z,103350.13
2023-02-04T02:40:42.852Z,103357.41
2023-02-04T02:51:04.327Z,103369.91
2023-02-04T03:01:26.142Z,103372.34
2023-02-04T03:11:47.717Z,103384.44
2023-02-04T03:22:09.199Z,103411.72
2023-02-04T03:32:30.594Z,103442.13
2023-02-04T03:42:52.027Z,103450.56
2023-02-04T03:53:13.417Z,103464.16
2023-02-04T04:03:34.789Z,103475.00
2023-02-04T04:13:56.172Z,103498.94
2023-02-04T04:24:17.543Z,103507.31
2023-02-04T04:34:38.920Z,103527.81
2023-02-04T04:45:00.318Z,103549.91
2023-02-04T04:55:21.753Z,103560.22
2023-02-04T05:05:44.253Z,103559.19
2023-02-04T05:16:05.706Z,103565.81
2023-02-04T05:26:30.815Z,103584.44
2023-02-04T05:36:52.556Z,103616.72
2023-02-04T05:47:13.901Z,103613.28
2023-02-04T05:57:35.337Z,103634.59
2023-02-04T06:07:56.692Z,103660.97
2023-02-04T06:18:18.052Z,103662.47
2023-02-04T06:28:39.394Z,103680.22
2023-02-04T06:39:00.774Z,103701.25
2023-02-04T06:49:22.247Z,103705.94
2023-02-04T06:59:43.747Z,103709.94
2023-02-04T07:10:05.257Z,103744.47
2023-02-04T07:20:26.639Z,103773.13
2023-02-04T07:30:48.112Z,103788.41
2023-02-04T07:41:09.571Z,103783.91
2023-02-04T07:51:31.138Z,103785.63
2023-02-04T08:01:52.609Z,103799.13
2023-02-04T08:12:14.098Z,103823.97
2023-02-04T08:22:35.701Z,103828.28
2023-02-04T08:32:57.037Z,103850.25
2023-02-04T08:43:18.437Z,103862.78
2023-02-04T08:53:40.671Z,103892.19
2023-02-04T09:04:02.079Z,103890.47
2023-02-04T09:14:23.485Z,103891.31
2023-02-04T09:24:44.884Z,103895.31
2023-02-04T09:35:06.312Z,103909.19
2023-02-04T09:45:29.703Z,103901.84
2023-02-04T09:55:51.968Z,103925.53
2023-02-04T10:06:14.360Z,103948.88
2023-02-04T10:16:37.862Z,103946.53
2023-02-04T10:27:09.331Z,103939.53
2023-02-04T10:37:32.046Z,103943.50
2023-02-04T10:47:54.404Z,103942.94
2023-02-04T10:58:18.657Z,103940.47
2023-02-04T11:08:40.563Z,103940.38
2023-02-04T11:19:04.153Z,103951.81
2023-02-04T11:29:34.613Z,103947.69
2023-02-04T11:39:58.578Z,103953.31
2023-02-04T11:50:19.914Z,103947.25
2023-02-04T12:00:42.473Z,103933.50
2023-02-04T12:11:11.167Z,103955.56
2023-02-04T12:21:32.518Z,103951.38
2023-02-04T12:31:53.981Z,103937.47
2023-02-04T12:42:15.427Z,103961.69
2023-02-04T12:52:39.737Z,103965.28
2023-02-04T13:03:02.972Z,103964.69
2023-02-04T13:13:24.341Z,103970.06
2023-02-04T13:23:45.804Z,103955.19
2023-02-04T13:34:07.248Z,103955.31
2023-02-04T13:44:28.610Z,103941.81
2023-02-04T13:54:50.065Z,103952.81
2023-02-04T14:05:11.422Z,103967.56
2023-02-04T14:15:34.709Z,103972.09
2023-02-04T14:25:56.166Z,103980.81
2023-02-04T14:36:17.574Z,103984.84
2023-02-04T14:46:41.061Z,103985.28
2023-02-04T14:57:02.442Z,103975.78
2023-02-04T15:07:23.788Z,103981.88
2023-02-04T15:17:45.180Z,104008.53
2023-02-04T15:28:07.404Z,103989.44
2023-02-04T15:38:28.804Z,103993.66
2023-02-04T15:48:50.192Z,103993.53
2023-02-04T15:59:11.588Z,103998.94
2023-02-04T16:09:32.952Z,103982.06
2023-02-04T16:19:54.386Z,103991.59
2023-02-04T16:30:15.907Z,103997.97
2023-02-04T16:40:37.255Z,104005.22
2023-02-04T16:50:58.643Z,104024.50
2023-02-04T17:01:20.023Z,104033.47
2023-02-04T17:11:48.778Z,104043.22
2023-02-04T17:22:10.141Z,104035.69
2023-02-04T17:32:31.554Z,104036.00
2023-02-04T17:42:53.053Z,104033.00
2023-02-04T17:53:14.452Z,104021.44
2023-02-04T18:03:36.186Z,104022.00
2023-02-04T18:14:00.750Z,104050.03
2023-02-04T18:24:27.112Z,104056.63
2023-02-04T18:34:52.795Z,104061.16
2023-02-04T18:45:20.078Z,104058.97
2023-02-04T18:55:43.432Z,104061.22
2023-02-04T19:06:16.849Z,104061.69
2023-02-04T19:16:38.287Z,104040.41
2023-02-04T19:27:00.861Z,104047.09
2023-02-04T19:37:26.983Z,104047.63
2023-02-04T19:47:49.664Z,104044.66
2023-02-04T19:58:17.401Z,104032.63
2023-02-04T20:08:43.557Z,104031.41
2023-02-04T20:19:23.774Z,104036.19
2023-02-04T20:29:45.452Z,104025.78
2023-02-04T20:40:27.077Z,104015.88
2023-02-04T20:50:51.870Z,104023.03
2023-02-04T21:01:29.560Z,104019.84
2023-02-04T21:11:52.000Z,104013.75
2023-02-04T21:22:13.376Z,104025.38
2023-02-04T21:32:34.758Z,104007.38
2023-02-04T21:42:56.183Z,104002.56
2023-02-04T21:53:17.593Z,103999.47
2023-02-04T22:03:39.017Z,104006.06
2023-02-04T22:14:19.030Z,103990.25
2023-02-04T22:24:40.438Z,103994.34
2023-02-04T22:35:01.856Z,103977.25
2023-02-04T22:45:23.239Z,104003.50
2023-02-04T22:55:44.615Z,103971.06
2023-02-04T23:06:06.207Z,103981.19
2023-02-04T23:16:27.629Z,103957.03
2023-02-04T23:26:49.049Z,103967.09
2023-02-04T23:37:10.445Z,103968.75
2023-02-04T23:47:31.794Z,103951.63
2023-02-04T23:57:53.166Z,103919.06
